Time;durP1;ratioP1;P1;durP2;ratioP2;P2;SDS_P1;SDS_P2;PMS_P1;PMS_P2;Temp;Humidity;BMP_temperature;BMP_pressure;BME280_temperature;BME280_humidity;BME280_pressure;Samples;Min_cycle;Max_cycle;Signal;HPM_P1;HPM_P2
2023/01/26 00:02:09;;;;;;;;;20.20;20.20;;;;;;;;5297328;27;8826;-79
2023/01/26 00:04:40;;;;;;;;;17.60;17.00;;;;;;;;5314283;27;8869;-76
2023/01/26 00:07:11;;;;;;;;;18.80;16.60;;;;;;;;5314794;27;8769;-77
2023/01/26 00:09:42;;;;;;;;;14.60;13.00;;;;;;;;5297040;27;8786;-76
2023/01/26 00:12:13;;;;;;;;;21.60;21.40;;;;;;;;5314492;27;8790;-78
2023/01/26 00:15:03;;;;;;;;;13.80;13.80;;;;;;;;5317047;27;9378;-77
2023/01/26 00:17:37;;;;;;;;;21.60;20.40;;;;;;;;5313671;27;8839;-77
2023/01/26 00:20:08;;;;;;;;;20.60;20.60;;;;;;;;5297112;27;8770;-77
2023/01/26 00:22:39;;;;;;;;;19.00;19.00;;;;;;;;5314464;27;8778;-76
2023/01/26 00:25:10;;;;;;;;;17.20;16.80;;;;;;;;5280042;27;8769;-76
2023/01/26 00:28:00;;;;;;;;;16.40;16.40;;;;;;;;5300651;27;8785;-77
2023/01/26 00:30:31;;;;;;;;;25.20;23.60;;;;;;;;5314581;27;8773;-78
2023/01/26 00:33:02;;;;;;;;;23.60;23.20;;;;;;;;5332244;27;8769;-79
2023/01/26 00:35:34;;;;;;;;;21.40;21.40;;;;;;;;5280405;27;9492;-79
2023/01/26 00:38:07;;;;;;;;;16.20;14.80;;;;;;;;5279895;27;8862;-79
2023/01/26 00:40:39;;;;;;;;;23.80;22.00;;;;;;;;5332172;27;8819;-79
2023/01/26 00:43:10;;;;;;;;;15.40;11.80;;;;;;;;5297133;27;8805;-80
2023/01/26 00:45:41;;;;;;;;;22.20;21.40;;;;;;;;5331874;27;8782;-80
2023/01/26 00:48:12;;;;;;;;;19.00;17.40;;;;;;;;5313789;27;8826;-81
2023/01/26 00:50:43;;;;;;;;;17.60;17.60;;;;;;;;5313569;27;8766;-80
2023/01/26 00:53:14;;;;;;;;;15.60;14.40;;;;;;;;5313490;27;8835;-79
2023/01/26 00:55:45;;;;;;;;;23.00;22.00;;;;;;;;5296623;27;8769;-79
2023/01/26 00:58:15;;;;;;;;;14.75;14.75;;;;;;;;5313360;27;10693;-78
2023/01/26 01:01:07;;;;;;;;;10.80;10.80;;;;;;;;5332006;27;8753;-77
2023/01/26 01:03:57;;;;;;;;;17.20;17.20;;;;;;;;5316504;27;8792;-77
2023/01/26 01:06:28;;;;;;;;;18.60;18.60;;;;;;;;5296374;27;8785;-77
2023/01/26 01:08:59;;;;;;;;;21.20;21.20;;;;;;;;5313004;27;8828;-75
2023/01/26 01:11:30;;;;;;;;;24.60;21.60;;;;;;;;5295833;27;8793;-76
2023/01/26 01:14:01;;;;;;;;;14.00;13.75;;;;;;;;5313461;27;9281;-75
2023/01/26 01:16:32;;;;;;;;;22.20;21.20;;;;;;;;5313210;27;8929;-75
2023/01/26 01:19:03;;;;;;;;;12.60;11.80;;;;;;;;5331253;27;8762;-74
2023/01/26 01:21:35;;;;;;;;;21.80;19.00;;;;;;;;5295801;27;8813;-76
2023/01/26 01:24:06;;;;;;;;;21.60;21.60;;;;;;;;5278933;27;8865;-76
2023/01/26 01:26:37;;;;;;;;;13.80;13.80;;;;;;;;5295875;27;8837;-76
2023/01/26 01:29:12;;;;;;;;;21.40;21.00;;;;;;;;5295790;27;8746;-76
2023/01/26 01:31:43;;;;;;;;;25.60;24.00;;;;;;;;5331023;27;8768;-74
2023/01/26 01:34:14;;;;;;;;;16.00;16.00;;;;;;;;5331596;27;9544;-76
2023/01/26 01:36:45;;;;;;;;;20.25;19.75;;;;;;;;5295605;27;8846;-76
2023/01/26 01:39:16;;;;;;;;;19.60;19.20;;;;;;;;5331620;27;11047;-76
2023/01/26 01:42:05;;;;;;;;;18.80;18.20;;;;;;;;5332028;27;8757;-76
2023/01/26 01:44:37;;;;;;;;;19.20;19.20;;;;;;;;5312630;27;8785;-76
2023/01/26 01:47:11;;;;;;;;;20.60;18.80;;;;;;;;5312874;27;8830;-76
2023/01/26 01:49:46;;;;;;;;;14.20;13.60;;;;;;;;5319417;27;8815;-75
2023/01/26 01:52:23;;;;;;;;;19.40;19.40;;;;;;;;5322463;27;8908;-76
2023/01/26 01:55:06;;;;;;;;;18.40;18.20;;;;;;;;5305688;27;8801;-74
2023/01/26 01:57:59;;;;;;;;;23.20;22.60;;;;;;;;5323528;27;8757;-78
2023/01/26 02:00:30;;;;;;;;;21.60;21.20;;;;;;;;5300175;27;8750;-75
2023/01/26 02:03:17;;;;;;;;;19.60;19.60;;;;;;;;5313297;27;8754;-76
2023/01/26 02:05:58;;;;;;;;;22.40;22.20;;;;;;;;5296043;27;8758;-75
2023/01/26 02:08:33;;;;;;;;;20.20;17.60;;;;;;;;5331105;27;8730;-76
2023/01/26 02:11:06;;;;;;;;;23.40;22.20;;;;;;;;5278614;27;8825;-76
2023/01/26 02:13:38;;;;;;;;;24.20;21.60;;;;;;;;5312481;27;8766;-76
2023/01/26 02:16:09;;;;;;;;;18.00;17.60;;;;;;;;5278686;27;9513;-76
2023/01/26 02:18:42;;;;;;;;;29.20;25.00;;;;;;;;5312126;27;8853;-75
2023/01/26 02:21:15;;;;;;;;;21.00;19.40;;;;;;;;5312532;27;8785;-78
2023/01/26 02:24:01;;;;;;;;;18.00;18.00;;;;;;;;5295448;27;8789;-78
2023/01/26 02:26:52;;;;;;;;;20.40;19.40;;;;;;;;5312479;27;8786;-76
2023/01/26 02:29:23;;;;;;;;;24.80;23.80;;;;;;;;5295341;27;8766;-73
2023/01/26 02:31:54;;;;;;;;;18.60;14.20;;;;;;;;5295550;27;8805;-71
2023/01/26 02:38:59;;;;;;;;;33.60;28.00;;;;;;;;5330843;27;8702;-73
2023/01/26 02:44:19;;;;;;;;;25.40;23.60;;;;;;;;5316221;27;8789;-73
2023/01/26 02:46:51;;;;;;;;;23.20;22.60;;;;;;;;5316033;27;8778;-72
2023/01/26 02:52:13;;;;;;;;;13.60;13.00;;;;;;;;5315996;27;8768;-72
2023/01/26 02:57:35;;;;;;;;;23.60;23.00;;;;;;;;5298711;27;8774;-73
2023/01/26 03:00:09;;;;;;;;;26.00;26.00;;;;;;;;5334658;27;8880;-73
2023/01/26 03:02:40;;;;;;;;;27.00;25.20;;;;;;;;5315527;27;8773;-73
2023/01/26 03:09:40;;;;;;;;;30.00;30.00;;;;;;;;5333682;27;8762;-76
2023/01/26 03:12:12;;;;;;;;;23.80;22.60;;;;;;;;5281629;27;8785;-73
2023/01/26 03:14:44;;;;;;;;;23.00;22.80;;;;;;;;5315131;27;8864;-72
2023/01/26 03:17:15;;;;;;;;;19.60;19.60;;;;;;;;5315333;27;9507;-72
2023/01/26 03:29:11;;;;;;;;;19.40;18.60;;;;;;;;5314949;27;9473;-72
2023/01/26 03:31:44;;;;;;;;;21.20;20.60;;;;;;;;5297754;27;8797;-74
2023/01/26 03:34:15;;;;;;;;;20.00;19.20;;;;;;;;5297710;27;8773;-75
2023/01/26 03:36:49;;;;;;;;;23.40;23.40;;;;;;;;5281007;27;8742;-74
2023/01/26 03:56:31;;;;;;;;;25.80;25.20;;;;;;;;5314700;27;8785;-72
2023/01/26 03:59:07;;;;;;;;;19.60;19.60;;;;;;;;5315867;27;8742;-75
2023/01/26 04:01:39;;;;;;;;;17.20;17.20;;;;;;;;5280781;27;9531;-74
2023/01/26 04:09:53;;;;;;;;;18.60;18.20;;;;;;;;5314267;27;8793;-73
2023/01/26 04:12:43;;;;;;;;;14.80;14.40;;;;;;;;5317128;27;8808;-74
2023/01/26 04:32:29;;;;;;;;;20.00;20.00;;;;;;;;5332082;27;8713;-73
2023/01/26 04:35:00;;;;;;;;;17.20;17.20;;;;;;;;5313623;27;8773;-75
2023/01/26 04:37:34;;;;;;;;;15.20;15.20;;;;;;;;5296203;27;8774;-74
2023/01/26 04:49:04;;;;;;;;;18.00;18.00;;;;;;;;5332485;27;9298;-69
2023/01/26 04:51:37;;;;;;;;;13.60;13.60;;;;;;;;5313941;27;8769;-74
2023/01/26 04:54:08;;;;;;;;;5.60;5.60;;;;;;;;5280914;27;8790;-69
2023/01/26 04:56:43;;;;;;;;;13.20;12.80;;;;;;;;5314404;27;8770;-69
2023/01/26 04:59:14;;;;;;;;;17.00;17.00;;;;;;;;5314026;27;8777;-69
2023/01/26 05:06:17;;;;;;;;;13.00;12.00;;;;;;;;5310633;27;8739;-68
2023/01/26 05:09:07;;;;;;;;;16.20;16.20;;;;;;;;5292825;27;8907;-68
2023/01/26 05:11:41;;;;;;;;;15.20;14.40;;;;;;;;5314192;27;8784;-67
2023/01/26 05:18:54;;;;;;;;;29.80;28.40;;;;;;;;5331735;27;8688;-67
2023/01/26 05:21:47;;;;;;;;;19.00;19.00;;;;;;;;5319890;27;8768;-68
2023/01/26 05:24:18;;;;;;;;;14.80;14.80;;;;;;;;5331161;27;9431;-67
2023/01/26 05:27:20;;;;;;;;;19.80;18.60;;;;;;;;5282062;27;8764;-67
2023/01/26 05:29:59;;;;;;;;;20.80;19.80;;;;;;;;5296451;27;8828;-68
2023/01/26 05:32:30;;;;;;;;;21.80;21.80;;;;;;;;5296627;27;8756;-68
2023/01/26 05:35:01;;;;;;;;;24.20;24.20;;;;;;;;5313396;27;8833;-67
2023/01/26 05:37:34;;;;;;;;;21.40;21.20;;;;;;;;5313681;27;8794;-67
2023/01/26 05:40:08;;;;;;;;;24.40;24.00;;;;;;;;5312901;27;9431;-67
2023/01/26 05:42:40;;;;;;;;;24.00;22.20;;;;;;;;5312877;27;8753;-67
2023/01/26 05:45:28;;;;;;;;;19.40;18.80;;;;;;;;5295772;27;9475;-67
2023/01/26 05:52:25;;;;;;;;;13.60;12.80;;;;;;;;5331135;27;8724;-67
2023/01/26 05:54:56;;;;;;;;;26.00;25.20;;;;;;;;5295184;27;8784;-67
2023/01/26 05:57:28;;;;;;;;;24.60;24.60;;;;;;;;5295901;27;8768;-68
2023/01/26 06:04:27;;;;;;;;;13.80;13.80;;;;;;;;5330653;27;8760;-67
2023/01/26 06:07:02;;;;;;;;;30.40;27.00;;;;;;;;5312167;27;8768;-67
2023/01/26 06:09:39;;;;;;;;;25.20;22.80;;;;;;;;5313311;27;8800;-68
2023/01/26 06:12:19;;;;;;;;;16.80;16.40;;;;;;;;5330051;27;9507;-68
2023/01/26 06:15:11;;;;;;;;;25.80;22.80;;;;;;;;5332524;27;8863;-68
2023/01/26 06:17:46;;;;;;;;;18.00;18.00;;;;;;;;5334175;27;8799;-69
2023/01/26 06:20:19;;;;;;;;;33.00;32.00;;;;;;;;5334739;27;8903;-67
2023/01/26 06:23:01;;;;;;;;;26.00;26.00;;;;;;;;5316300;27;8815;-67
2023/01/26 06:25:35;;;;;;;;;23.00;23.00;;;;;;;;5316202;27;8805;-67
2023/01/26 06:28:08;;;;;;;;;11.20;10.80;;;;;;;;5335418;27;8785;-67
2023/01/26 06:30:44;;;;;;;;;26.40;23.00;;;;;;;;5333466;27;9574;-66
2023/01/26 06:37:39;;;;;;;;;11.40;11.00;;;;;;;;5334345;27;8709;-69
2023/01/26 06:40:10;;;;;;;;;19.60;18.60;;;;;;;;5334272;27;8791;-66
2023/01/26 06:43:00;;;;;;;;;19.20;19.20;;;;;;;;5334965;27;8772;-66
2023/01/26 06:45:31;;;;;;;;;27.60;27.20;;;;;;;;5333514;27;8776;-67
2023/01/26 06:52:40;;;;;;;;;12.60;12.60;;;;;;;;5333923;27;8795;-67
2023/01/26 06:55:37;;;;;;;;;20.60;20.00;;;;;;;;5332819;27;8792;-68
2023/01/26 06:58:27;;;;;;;;;23.40;21.40;;;;;;;;5334195;27;8769;-70
2023/01/26 07:01:22;;;;;;;;;22.40;21.00;;;;;;;;5332288;27;8872;-69
2023/01/26 07:03:54;;;;;;;;;18.80;16.20;;;;;;;;5333234;27;8820;-68
2023/01/26 07:06:25;;;;;;;;;29.40;29.00;;;;;;;;5332415;27;8840;-69
2023/01/26 07:08:56;;;;;;;;;31.40;27.40;;;;;;;;5334169;27;8796;-69
2023/01/26 07:11:45;;;;;;;;;30.60;27.60;;;;;;;;5332890;27;8955;-69
2023/01/26 07:14:16;;;;;;;;;26.60;25.80;;;;;;;;5332263;27;8776;-68
2023/01/26 07:16:47;;;;;;;;;20.40;18.80;;;;;;;;5333348;27;8777;-67
2023/01/26 07:19:18;;;;;;;;;12.60;12.00;;;;;;;;5315621;27;8777;-68
2023/01/26 07:22:07;;;;;;;;;23.80;23.00;;;;;;;;5332600;27;8792;-68
2023/01/26 07:24:38;;;;;;;;;23.25;23.00;;;;;;;;5332232;27;8827;-65
2023/01/26 07:27:09;;;;;;;;;25.00;23.40;;;;;;;;5315065;27;9767;-69
2023/01/26 07:29:40;;;;;;;;;23.00;23.00;;;;;;;;5332450;27;8849;-70
2023/01/26 07:32:11;;;;;;;;;30.75;30.25;;;;;;;;5333322;27;11395;-68
2023/01/26 07:34:42;;;;;;;;;25.20;25.00;;;;;;;;5332483;27;9381;-69
2023/01/26 07:37:13;;;;;;;;;31.50;29.00;;;;;;;;5315274;27;8875;-68
2023/01/26 07:39:44;;;;;;;;;33.80;33.80;;;;;;;;5331945;27;9995;-69
2023/01/26 07:42:15;;;;;;;;;24.60;23.40;;;;;;;;5333249;27;8785;-68
2023/01/26 07:45:04;;;;;;;;;25.80;24.80;;;;;;;;5315128;27;8792;-69
2023/01/26 07:47:36;;;;;;;;;27.00;27.00;;;;;;;;5331703;27;8789;-69
2023/01/26 07:50:07;;;;;;;;;23.80;22.00;;;;;;;;5333044;27;8761;-68
2023/01/26 07:52:59;;;;;;;;;21.40;20.80;;;;;;;;5331939;27;8777;-69
2023/01/26 07:55:30;;;;;;;;;22.00;21.60;;;;;;;;5333092;27;8783;-69
2023/01/26 07:58:01;;;;;;;;;20.25;20.25;;;;;;;;5332901;27;8892;-70
2023/01/26 08:00:32;;;;;;;;;32.80;30.20;;;;;;;;5333523;27;11446;-69
2023/01/26 08:03:23;;;;;;;;;22.40;22.40;;;;;;;;5333318;27;9428;-69
2023/01/26 08:05:54;;;;;;;;;20.80;19.80;;;;;;;;5332248;27;8795;-69
2023/01/26 08:08:25;;;;;;;;;25.25;24.00;;;;;;;;5332543;27;8788;-69
2023/01/26 08:10:57;;;;;;;;;22.80;22.20;;;;;;;;5332730;27;10746;-68
2023/01/26 08:13:29;;;;;;;;;32.80;31.60;;;;;;;;5298228;27;8792;-69
2023/01/26 08:16:00;;;;;;;;;25.20;25.20;;;;;;;;5334430;27;8780;-68
2023/01/26 08:18:31;;;;;;;;;29.60;29.00;;;;;;;;5301530;27;8786;-68
2023/01/26 08:21:03;;;;;;;;;27.40;27.20;;;;;;;;5319392;27;9462;-69
2023/01/26 08:23:34;;;;;;;;;35.80;33.80;;;;;;;;5332036;27;8812;-69
2023/01/26 08:26:07;;;;;;;;;25.00;25.00;;;;;;;;5332273;27;8860;-67
2023/01/26 08:28:38;;;;;;;;;29.00;28.20;;;;;;;;5330771;27;8780;-68
2023/01/26 08:35:44;;;;;;;;;27.80;27.00;;;;;;;;5333256;27;8784;-68
2023/01/26 08:38:15;;;;;;;;;29.50;28.25;;;;;;;;5331090;27;8788;-69
2023/01/26 08:40:50;;;;;;;;;16.75;15.50;;;;;;;;5313428;27;9483;-68
2023/01/26 08:43:21;;;;;;;;;23.60;22.00;;;;;;;;5332574;27;11489;-69
2023/01/26 08:45:52;;;;;;;;;26.00;22.00;;;;;;;;5331213;27;9611;-68
2023/01/26 08:48:23;;;;;;;;;24.40;22.80;;;;;;;;5313897;27;11445;-68
2023/01/26 08:50:55;;;;;;;;;23.25;23.25;;;;;;;;5332305;27;8767;-67
2023/01/26 08:53:28;;;;;;;;;24.80;23.80;;;;;;;;5330632;27;10693;-69
2023/01/26 08:56:03;;;;;;;;;25.80;24.40;;;;;;;;5332064;27;8804;-69
2023/01/26 08:58:34;;;;;;;;;27.60;26.40;;;;;;;;5332140;27;8789;-68
2023/01/26 09:01:12;;;;;;;;;18.75;18.75;;;;;;;;5331930;27;8958;-69
2023/01/26 09:03:43;;;;;;;;;28.40;28.40;;;;;;;;5330548;27;11192;-68
2023/01/26 09:06:33;;;;;;;;;42.20;40.80;;;;;;;;5332789;27;8784;-70
2023/01/26 09:09:03;;;;;;;;;33.20;30.40;;;;;;;;5330686;27;8768;-68
2023/01/26 09:11:34;;;;;;;;;24.25;22.25;;;;;;;;5330531;27;8939;-69
2023/01/26 09:14:05;;;;;;;;;24.25;23.75;;;;;;;;5331505;27;8800;-68
2023/01/26 09:16:36;;;;;;;;;31.00;30.25;;;;;;;;5331080;27;9275;-69
2023/01/26 09:19:07;;;;;;;;;25.00;24.60;;;;;;;;5331265;27;8768;-69
2023/01/26 09:21:38;;;;;;;;;29.50;29.25;;;;;;;;5329934;27;8845;-68
2023/01/26 09:24:09;;;;;;;;;27.00;27.00;;;;;;;;5331353;27;8926;-68
2023/01/26 09:26:40;;;;;;;;;21.60;21.60;;;;;;;;5330217;27;8772;-68
2023/01/26 09:29:29;;;;;;;;;18.00;17.20;;;;;;;;5331810;27;9428;-68
2023/01/26 09:32:00;;;;;;;;;33.00;28.00;;;;;;;;5313208;27;8764;-69
2023/01/26 09:34:31;;;;;;;;;25.25;21.00;;;;;;;;5330934;27;11484;-68
2023/01/26 09:37:02;;;;;;;;;26.00;24.00;;;;;;;;5312790;27;10699;-68
2023/01/26 09:39:51;;;;;;;;;25.40;25.40;;;;;;;;5330951;27;11500;-69
2023/01/26 09:42:22;;;;;;;;;13.75;13.00;;;;;;;;5330017;27;8772;-68
2023/01/26 09:45:02;;;;;;;;;19.50;19.50;;;;;;;;5329819;27;11458;-69
2023/01/26 09:47:54;;;;;;;;;16.80;15.60;;;;;;;;5329986;27;8753;-69
2023/01/26 09:50:28;;;;;;;;;16.20;15.40;;;;;;;;5333734;27;8792;-68
2023/01/26 09:53:01;;;;;;;;;16.20;16.20;;;;;;;;5317196;27;8781;-68
2023/01/26 09:55:32;;;;;;;;;19.00;18.60;;;;;;;;5334051;27;8845;-68
2023/01/26 09:58:25;;;;;;;;;19.80;19.80;;;;;;;;5333900;27;8887;-69
2023/01/26 10:00:58;;;;;;;;;18.20;18.20;;;;;;;;5334241;27;8769;-69
2023/01/26 10:03:46;;;;;;;;;15.00;15.00;;;;;;;;5316632;27;8822;-69
2023/01/26 10:06:30;;;;;;;;;12.40;12.40;;;;;;;;5334313;27;8795;-68
2023/01/26 10:09:32;;;;;;;;;20.00;19.40;;;;;;;;5334803;27;8827;-68
2023/01/26 10:12:08;;;;;;;;;16.80;16.80;;;;;;;;5334215;27;8792;-68
2023/01/26 10:14:42;;;;;;;;;28.40;28.00;;;;;;;;5335602;27;8797;-68
2023/01/26 10:17:24;;;;;;;;;20.00;20.00;;;;;;;;5334102;27;8753;-68
2023/01/26 10:19:59;;;;;;;;;33.20;27.00;;;;;;;;5335565;27;8789;-69
2023/01/26 10:22:33;;;;;;;;;28.40;28.20;;;;;;;;5335242;27;8929;-67
2023/01/26 10:25:11;;;;;;;;;36.00;28.40;;;;;;;;5334637;27;8785;-67
2023/01/26 10:28:14;;;;;;;;;30.80;27.40;;;;;;;;5334857;27;8795;-68
2023/01/26 10:30:46;;;;;;;;;23.60;23.60;;;;;;;;5334314;27;8788;-66
2023/01/26 10:33:19;;;;;;;;;28.00;26.00;;;;;;;;5334839;27;8799;-67
2023/01/26 10:35:50;;;;;;;;;28.00;27.80;;;;;;;;5333487;27;8776;-67
2023/01/26 10:38:33;;;;;;;;;19.75;19.75;;;;;;;;5333908;27;8811;-68
2023/01/26 10:41:06;;;;;;;;;28.60;28.20;;;;;;;;5333390;27;9110;-67
2023/01/26 10:43:40;;;;;;;;;29.40;27.40;;;;;;;;5334223;27;8805;-67
2023/01/26 10:46:24;;;;;;;;;17.80;17.20;;;;;;;;5333518;27;8869;-68
2023/01/26 10:48:57;;;;;;;;;21.00;20.20;;;;;;;;5333154;27;8781;-67
2023/01/26 10:51:32;;;;;;;;;29.60;28.60;;;;;;;;5333387;27;8818;-66
2023/01/26 10:54:12;;;;;;;;;28.40;28.40;;;;;;;;5334587;27;8857;-66
2023/01/26 10:56:47;;;;;;;;;27.00;26.20;;;;;;;;5333076;27;8775;-67
2023/01/26 10:59:29;;;;;;;;;27.60;26.40;;;;;;;;5333711;27;8768;-66
2023/01/26 11:06:26;;;;;;;;;29.60;28.00;;;;;;;;5333870;27;8820;-68
2023/01/26 11:09:19;;;;;;;;;30.40;28.80;;;;;;;;5334200;27;9443;-68
2023/01/26 11:11:59;;;;;;;;;27.20;26.20;;;;;;;;5312915;27;8790;-68
2023/01/26 11:14:32;;;;;;;;;25.60;25.60;;;;;;;;5312666;27;8775;-68
2023/01/26 11:21:30;;;;;;;;;15.00;15.00;;;;;;;;5312140;27;9409;-67
2023/01/26 11:28:43;;;;;;;;;24.60;23.00;;;;;;;;5311957;27;8706;-66
2023/01/26 11:40:00;;;;;;;;;28.00;27.00;;;;;;;;5311705;27;8699;-67
2023/01/26 11:46:59;;;;;;;;;29.60;25.40;;;;;;;;5311614;27;8738;-67
2023/01/26 11:54:02;;;;;;;;;43.20;40.20;;;;;;;;5311491;27;8722;-66
2023/01/26 12:01:19;;;;;;;;;28.40;21.60;;;;;;;;5311675;27;8831;-67
2023/01/26 12:17:31;;;;;;;;;32.20;32.20;;;;;;;;5332350;27;8724;-66
2023/01/26 12:24:39;;;;;;;;;27.80;27.80;;;;;;;;5332449;27;8756;-66
2023/01/26 12:36:16;;;;;;;;;40.60;35.60;;;;;;;;5331980;27;8708;-66
2023/01/26 12:39:07;;;;;;;;;24.60;23.40;;;;;;;;5314137;27;8763;-67
2023/01/26 12:41:57;;;;;;;;;21.20;20.80;;;;;;;;5296591;27;8836;-67
2023/01/26 12:44:45;;;;;;;;;16.80;16.80;;;;;;;;5332322;27;8806;-67
2023/01/26 12:47:17;;;;;;;;;15.20;14.80;;;;;;;;5313520;27;8784;-67
2023/01/26 12:49:48;;;;;;;;;22.50;22.00;;;;;;;;5332001;27;8802;-68
2023/01/26 12:52:18;;;;;;;;;22.00;21.00;;;;;;;;5331771;27;11403;-67
2023/01/26 12:55:09;;;;;;;;;23.75;22.75;;;;;;;;5331245;27;11455;-66
2023/01/26 12:57:49;;;;;;;;;4.40;4.40;;;;;;;;5296406;27;9506;-67
2023/01/26 13:00:22;;;;;;;;;52.40;44.40;;;;;;;;5313273;27;9467;-68
2023/01/26 13:02:59;;;;;;;;;24.60;22.20;;;;;;;;5295767;27;8815;-68
2023/01/26 13:10:08;;;;;;;;;53.00;46.00;;;;;;;;5331340;27;8823;-68
2023/01/26 13:12:45;;;;;;;;;23.80;23.80;;;;;;;;5328935;27;9538;-67
2023/01/26 13:15:19;;;;;;;;;21.00;20.40;;;;;;;;5331738;27;8788;-67
2023/01/26 13:18:12;;;;;;;;;25.20;23.40;;;;;;;;5330494;27;8773;-67
2023/01/26 13:20:47;;;;;;;;;26.00;26.00;;;;;;;;5330384;27;8764;-67
2023/01/26 13:23:39;;;;;;;;;24.20;24.20;;;;;;;;5330821;27;8846;-68
2023/01/26 13:26:31;;;;;;;;;27.20;26.40;;;;;;;;5330469;27;8768;-67
2023/01/26 13:29:20;;;;;;;;;35.20;31.20;;;;;;;;5329760;27;8765;-68
2023/01/26 13:31:55;;;;;;;;;22.20;21.60;;;;;;;;5329940;27;8849;-68
2023/01/26 13:34:28;;;;;;;;;30.60;30.60;;;;;;;;5331432;27;8786;-67
2023/01/26 13:37:04;;;;;;;;;39.00;36.20;;;;;;;;5329687;27;9537;-67
2023/01/26 13:44:13;;;;;;;;;48.20;42.60;;;;;;;;5330805;27;8757;-68
2023/01/26 13:46:50;;;;;;;;;48.20;40.40;;;;;;;;5329765;27;8781;-67
2023/01/26 13:49:41;;;;;;;;;43.40;42.00;;;;;;;;5331336;27;9450;-68
2023/01/26 13:52:17;;;;;;;;;49.00;43.80;;;;;;;;5330644;27;8769;-68
2023/01/26 13:54:49;;;;;;;;;53.20;43.40;;;;;;;;5313301;27;9489;-68
2023/01/26 13:57:21;;;;;;;;;38.60;36.80;;;;;;;;5329601;27;8768;-67
2023/01/26 14:00:12;;;;;;;;;30.40;26.20;;;;;;;;5330855;27;9606;-68
2023/01/26 14:02:47;;;;;;;;;39.00;36.20;;;;;;;;5312626;27;8776;-67
2023/01/26 14:09:49;;;;;;;;;18.80;18.80;;;;;;;;5309113;27;8737;-68
2023/01/26 14:17:07;;;;;;;;;26.20;25.00;;;;;;;;5309016;27;8748;-68
2023/01/26 14:24:05;;;;;;;;;18.60;18.60;;;;;;;;5308952;27;8775;-67
2023/01/26 14:26:36;;;;;;;;;13.80;13.80;;;;;;;;5309123;27;8882;-66
2023/01/26 14:33:33;;;;;;;;;29.80;27.20;;;;;;;;5309004;27;8684;-67
2023/01/26 14:36:06;;;;;;;;;23.60;23.60;;;;;;;;5310793;27;8775;-67
2023/01/26 14:43:00;;;;;;;;;23.00;21.80;;;;;;;;5313015;27;8696;-67
2023/01/26 14:50:05;;;;;;;;;18.00;18.00;;;;;;;;5316585;27;8688;-66
2023/01/26 14:57:05;;;;;;;;;21.00;20.40;;;;;;;;5312295;27;8720;-67
2023/01/26 15:04:15;;;;;;;;;19.20;19.20;;;;;;;;5312426;27;8774;-67
2023/01/26 15:13:57;;;;;;;;;24.80;24.40;;;;;;;;5298141;27;8908;-67
2023/01/26 15:16:28;;;;;;;;;22.40;22.40;;;;;;;;5314932;27;8761;-67
2023/01/26 15:19:05;;;;;;;;;31.80;28.80;;;;;;;;5315118;27;9486;-67
2023/01/26 15:21:42;;;;;;;;;32.20;31.20;;;;;;;;5334327;27;8769;-68
2023/01/26 15:24:31;;;;;;;;;26.60;26.20;;;;;;;;5318218;27;8786;-68
2023/01/26 15:27:06;;;;;;;;;28.25;27.75;;;;;;;;5315391;27;8777;-68
2023/01/26 15:29:39;;;;;;;;;25.40;18.80;;;;;;;;5333842;27;8778;-68
2023/01/26 15:32:27;;;;;;;;;27.80;27.80;;;;;;;;5316094;27;8814;-68
2023/01/26 15:35:06;;;;;;;;;64.00;52.60;;;;;;;;5315202;27;8761;-69
2023/01/26 15:37:37;;;;;;;;;29.20;28.40;;;;;;;;5315052;27;8764;-68
2023/01/26 15:40:08;;;;;;;;;22.20;22.00;;;;;;;;5315096;27;8766;-68
2023/01/26 15:42:39;;;;;;;;;20.80;20.80;;;;;;;;5333001;27;8780;-68
2023/01/26 15:45:21;;;;;;;;;23.40;22.00;;;;;;;;5314849;27;8795;-67
2023/01/26 15:47:52;;;;;;;;;27.40;27.00;;;;;;;;5297523;27;8766;-68
2023/01/26 15:50:24;;;;;;;;;24.75;22.75;;;;;;;;5297460;27;8766;-68
2023/01/26 15:52:55;;;;;;;;;25.40;24.40;;;;;;;;5297700;27;10837;-69
2023/01/26 15:55:29;;;;;;;;;12.80;12.80;;;;;;;;5314656;27;8777;-69
2023/01/26 15:58:18;;;;;;;;;25.60;24.00;;;;;;;;5333083;27;9406;-68
2023/01/26 16:00:51;;;;;;;;;26.40;25.40;;;;;;;;5314507;27;9488;-68
2023/01/26 16:03:22;;;;;;;;;24.40;23.60;;;;;;;;5333307;27;8781;-67
2023/01/26 16:06:17;;;;;;;;;21.60;21.00;;;;;;;;5299785;27;8757;-67
2023/01/26 16:08:48;;;;;;;;;20.40;18.60;;;;;;;;5333652;27;8895;-68
2023/01/26 16:11:20;;;;;;;;;21.60;20.20;;;;;;;;5314181;27;8813;-68
2023/01/26 16:13:51;;;;;;;;;22.00;22.00;;;;;;;;5296902;27;8789;-68
2023/01/26 16:16:26;;;;;;;;;23.80;23.80;;;;;;;;5313750;27;8784;-67
2023/01/26 16:18:57;;;;;;;;;23.00;23.00;;;;;;;;5314173;27;8931;-68
2023/01/26 16:21:31;;;;;;;;;22.80;22.80;;;;;;;;5332258;27;8968;-68
2023/01/26 16:24:03;;;;;;;;;20.40;19.40;;;;;;;;5313631;27;8872;-68
2023/01/26 16:26:33;;;;;;;;;15.00;15.00;;;;;;;;5314302;27;8818;-67
2023/01/26 16:29:04;;;;;;;;;12.75;12.75;;;;;;;;5332163;27;8757;-68
2023/01/26 16:31:36;;;;;;;;;19.00;19.00;;;;;;;;5332007;27;9752;-67
2023/01/26 16:34:08;;;;;;;;;19.75;19.25;;;;;;;;5332544;27;8758;-68
2023/01/26 16:36:57;;;;;;;;;22.00;22.00;;;;;;;;5316422;27;12096;-68
2023/01/26 16:39:28;;;;;;;;;22.25;22.25;;;;;;;;5280564;27;8769;-68
2023/01/26 16:41:59;;;;;;;;;20.75;20.00;;;;;;;;5331886;27;8791;-68
2023/01/26 16:44:30;;;;;;;;;24.80;23.80;;;;;;;;5313871;27;9713;-68
2023/01/26 16:47:03;;;;;;;;;23.20;22.80;;;;;;;;5313301;27;8762;-68
2023/01/26 16:49:53;;;;;;;;;26.80;24.60;;;;;;;;5332038;27;8820;-68
2023/01/26 16:52:23;;;;;;;;;20.60;20.20;;;;;;;;5279518;27;8814;-68
2023/01/26 16:54:54;;;;;;;;;19.50;19.25;;;;;;;;5296080;27;8773;-68
2023/01/26 16:57:44;;;;;;;;;23.80;23.60;;;;;;;;5315916;27;10858;-68
2023/01/26 17:00:19;;;;;;;;;16.20;16.20;;;;;;;;5295899;27;8762;-69
2023/01/26 17:02:50;;;;;;;;;24.60;23.60;;;;;;;;5313131;27;8804;-67
2023/01/26 17:05:22;;;;;;;;;19.40;19.40;;;;;;;;5331758;27;8833;-68
2023/01/26 17:07:53;;;;;;;;;23.80;23.40;;;;;;;;5331530;27;9500;-68
2023/01/26 17:10:23;;;;;;;;;28.25;27.00;;;;;;;;5296258;27;8774;-68
2023/01/26 17:12:54;;;;;;;;;26.40;25.20;;;;;;;;5296145;27;8782;-68
2023/01/26 17:15:28;;;;;;;;;20.75;20.75;;;;;;;;5313159;27;8770;-68
2023/01/26 17:18:17;;;;;;;;;21.40;20.00;;;;;;;;5298526;27;11394;-68
2023/01/26 17:20:48;;;;;;;;;27.75;26.25;;;;;;;;5331688;27;8927;-68
2023/01/26 17:23:18;;;;;;;;;26.50;26.00;;;;;;;;5295557;27;11440;-68
2023/01/26 17:25:55;;;;;;;;;28.00;26.50;;;;;;;;5331129;27;9252;-68
2023/01/26 17:28:45;;;;;;;;;27.20;27.00;;;;;;;;5331957;27;10097;-68
2023/01/26 17:31:17;;;;;;;;;27.20;26.20;;;;;;;;5312347;27;8765;-68
2023/01/26 17:33:49;;;;;;;;;26.20;26.20;;;;;;;;5331631;27;8834;-69
2023/01/26 17:36:20;;;;;;;;;20.20;20.20;;;;;;;;5312231;27;8762;-69
2023/01/26 17:38:51;;;;;;;;;24.00;22.80;;;;;;;;5331251;27;8750;-69
2023/01/26 17:41:22;;;;;;;;;26.20;26.20;;;;;;;;5295375;27;8785;-69
2023/01/26 17:43:53;;;;;;;;;34.50;33.00;;;;;;;;5312549;27;8789;-68
2023/01/26 17:46:43;;;;;;;;;26.60;26.00;;;;;;;;5315930;27;9926;-68
2023/01/26 17:49:14;;;;;;;;;34.75;34.00;;;;;;;;5331027;27;8774;-68
2023/01/26 17:51:46;;;;;;;;;26.00;26.00;;;;;;;;5312932;27;11374;-68
2023/01/26 17:54:17;;;;;;;;;38.40;35.00;;;;;;;;5330790;27;9081;-68
2023/01/26 17:56:48;;;;;;;;;27.80;27.80;;;;;;;;5312672;27;8781;-68
2023/01/26 17:59:19;;;;;;;;;20.20;20.20;;;;;;;;5330799;27;8842;-68
2023/01/26 18:01:51;;;;;;;;;30.50;28.50;;;;;;;;5312433;27;8761;-67
2023/01/26 18:04:40;;;;;;;;;22.20;22.20;;;;;;;;5330947;27;8782;-67
2023/01/26 18:07:11;;;;;;;;;22.25;20.75;;;;;;;;5331209;27;8831;-67
2023/01/26 18:09:42;;;;;;;;;27.00;26.00;;;;;;;;5314078;27;11378;-68
2023/01/26 18:12:13;;;;;;;;;23.75;23.25;;;;;;;;5335109;27;10597;-69
2023/01/26 18:14:44;;;;;;;;;24.40;23.40;;;;;;;;5316648;27;11344;-66
2023/01/26 18:17:15;;;;;;;;;15.25;15.25;;;;;;;;5335531;27;8770;-68
2023/01/26 18:19:46;;;;;;;;;18.40;18.00;;;;;;;;5335991;27;11368;-69
2023/01/26 18:22:17;;;;;;;;;14.00;13.80;;;;;;;;5299368;27;8812;-68
2023/01/26 18:24:48;;;;;;;;;17.50;17.50;;;;;;;;5316699;27;8816;-69
2023/01/26 18:27:21;;;;;;;;;19.40;19.40;;;;;;;;5317538;27;9971;-68
2023/01/26 18:29:52;;;;;;;;;15.40;15.40;;;;;;;;5335169;27;8868;-68
2023/01/26 18:32:23;;;;;;;;;20.60;20.00;;;;;;;;5316065;27;8774;-68
2023/01/26 18:35:12;;;;;;;;;20.00;19.80;;;;;;;;5335192;27;8773;-69
2023/01/26 18:37:43;;;;;;;;;11.00;10.00;;;;;;;;5334698;27;8761;-68
2023/01/26 18:40:16;;;;;;;;;16.00;16.00;;;;;;;;5334548;27;8796;-67
2023/01/26 18:42:48;;;;;;;;;20.80;20.80;;;;;;;;5315986;27;10680;-68
2023/01/26 18:45:19;;;;;;;;;17.00;16.80;;;;;;;;5315991;27;8793;-68
2023/01/26 18:47:50;;;;;;;;;21.20;20.00;;;;;;;;5334569;27;8781;-69
2023/01/26 18:50:22;;;;;;;;;21.20;21.20;;;;;;;;5335323;27;8762;-68
2023/01/26 18:52:56;;;;;;;;;15.20;15.20;;;;;;;;5282292;27;8777;-68
2023/01/26 18:55:27;;;;;;;;;16.00;15.00;;;;;;;;5334732;27;8820;-68
2023/01/26 18:58:00;;;;;;;;;20.00;19.20;;;;;;;;5333944;27;8794;-68
2023/01/26 19:00:31;;;;;;;;;21.00;21.00;;;;;;;;5316021;27;8761;-69